Bahama Spirit — YJRE4 — position and weather

sailwx.info

Track history (hours):
 
Tides and Currents Weather Stations Pressure Air Temp Water Temp Dewpoint Dewpoint Depression Visibility Wind Speed Wind Dir Waves Ship Positions

Bahama Spirit

Last reported at 2018-Feb-07 21:01 UTC. Time now 2018-Feb-19 12:17 UTC.
Position N 09°11' W 079°52'.
Warning: this ship's position is 11 days out of date.

Length 187 m; draft 10 m.

Type: Cargo ship. MMSI: 576532000.

Date/timePositionNaut miles runAvg speedWind from/ knotsBaromVisibWave heightAir tempDewpointWater temp
2018-Feb-07 21:01N 09°11' W 079°52'5 0.4
2018-Feb-07 09:29N 09°14' W 079°56'0 0.1
2018-Feb-07 09:00N 09°14' W 079°56'0 0.0
2018-Feb-07 08:29N 09°14' W 079°56'0 0.0
2018-Feb-07 08:00N 09°14' W 079°56'0 0.0
2018-Feb-07 07:30N 09°14' W 079°56'0 0.1
2018-Feb-07 06:59N 09°14' W 079°56'2 3.2
2018-Feb-07 06:30N 09°15' W 079°55'1 2.2
2018-Feb-07 06:00N 09°16' W 079°55'0 0.5
2018-Feb-07 05:30N 09°17' W 079°55'0 0.6
2018-Feb-07 05:00N 09°17' W 079°55'1 1.5
2018-Feb-07 04:30N 09°18' W 079°55'5 3.1
2018-Feb-07 03:01N 09°22' W 079°56'0 0.0
2018-Feb-07 02:58N 09°22' W 079°56'0 0.0
2018-Feb-07 02:28N 09°22' W 079°56'0 0.0
2018-Feb-07 01:58N 09°22' W 079°56'0 0.0
2018-Feb-07 01:28N 09°22' W 079°56'0 0.1
2018-Feb-07 00:58N 09°22' W 079°56'0 0.0
2018-Feb-07 00:28N 09°22' W 079°56'0 0.0
2018-Feb-06 23:58N 09°22' W 079°56'0 0.0
2018-Feb-06 23:28N 09°22' W 079°56'0 0.0
2018-Feb-06 22:58N 09°22' W 079°56'0 0.0
2018-Feb-06 22:25N 09°22' W 079°56'0 0.0
2018-Feb-06 21:58N 09°22' W 079°56'0 0.0
2018-Feb-06 21:28N 09°22' W 079°56'0 0.0
2018-Feb-06 20:58N 09°22' W 079°56'0 0.0
2018-Feb-06 20:28N 09°22' W 079°56'0 0.0
2018-Feb-06 19:58N 09°22' W 079°56'0 0.0
2018-Feb-06 19:28N 09°22' W 079°56'0 0.0
2018-Feb-06 18:58N 09°22' W 079°56'0 0.0
2018-Feb-06 18:28N 09°22' W 079°56'0 0.0
2018-Feb-06 17:58N 09°22' W 079°56'0 0.0
2018-Feb-06 17:28N 09°22' W 079°56'0 0.0
2018-Feb-06 16:58N 09°22' W 079°56'0 0.0
2018-Feb-06 16:28N 09°22' W 079°56'0 0.1
2018-Feb-06 15:58N 09°22' W 079°56'0 0.8
2018-Feb-06 15:30N 09°22' W 079°56'2 4.3
2018-Feb-06 15:00N 09°24' W 079°55'1 1.7
2018-Feb-06 14:30N 09°25' W 079°55'1 1.3
2018-Feb-06 13:29N 09°26' W 079°56'0 0.6
2018-Feb-06 12:53N 09°26' W 079°56'0 0.0
2018-Feb-06 12:29N 09°26' W 079°56'0 0.0
2018-Feb-06 11:59N 09°26' W 079°56'0 0.0
2018-Feb-06 11:23N 09°26' W 079°56'0 0.0
2018-Feb-06 10:59N 09°26' W 079°56'0 0.0
2018-Feb-06 10:29N 09°26' W 079°56'0 0.1
2018-Feb-06 09:59N 09°26' W 079°56'0 0.0
2018-Feb-06 09:23N 09°26' W 079°56'0 0.0
2018-Feb-06 08:59N 09°26' W 079°56'0 0.0
2018-Feb-06 08:20N 09°26' W 079°56'0 0.0
2018-Feb-06 07:59N 09°26' W 079°56'0 0.0
2018-Feb-06 07:17N 09°26' W 079°56'0 0.0
2018-Feb-06 06:59N 09°26' W 079°56'0 0.0
2018-Feb-06 06:29N 09°26' W 079°56'0 0.0
2018-Feb-06 05:59N 09°26' W 079°56'0 0.0
2018-Feb-06 05:29N 09°26' W 079°56'0 0.0
2018-Feb-06 04:59N 09°26' W 079°56'0 0.0
2018-Feb-06 04:29N 09°26' W 079°56'0 0.0
2018-Feb-06 03:59N 09°26' W 079°56'0 0.0
2018-Feb-06 03:29N 09°26' W 079°56'0 0.0
2018-Feb-06 02:59N 09°26' W 079°56'0 0.0
2018-Feb-06 02:29N 09°26' W 079°56'0 0.0
2018-Feb-06 01:59N 09°26' W 079°56'0 0.0
2018-Feb-06 01:29N 09°26' W 079°56'0 0.0
2018-Feb-06 00:59N 09°26' W 079°56'0 0.0
2018-Feb-06 00:29N 09°26' W 079°56'0 0.0
2018-Feb-05 23:59N 09°26' W 079°56'0 0.0
2018-Feb-05 23:29N 09°26' W 079°56'0 0.0
2018-Feb-05 22:59N 09°26' W 079°56'0 0.0
2018-Feb-05 22:29N 09°26' W 079°56'0 0.0
2018-Feb-05 21:59N 09°26' W 079°56'0 0.0
2018-Feb-05 21:29N 09°26' W 079°56'0 0.0
2018-Feb-05 20:59N 09°26' W 079°56'0 0.0
2018-Feb-05 20:29N 09°26' W 079°56'0 0.0
2018-Feb-05 19:59N 09°26' W 079°56'0 0.0
2018-Feb-05 19:26N 09°26' W 079°56'0 0.0
2018-Feb-05 18:53N 09°26' W 079°56'0 0.0
2018-Feb-05 18:26N 09°26' W 079°56'0 0.0
2018-Feb-05 17:59N 09°26' W 079°56'0 0.0
2018-Feb-05 17:29N 09°26' W 079°56'0 0.1
2018-Feb-05 16:59N 09°26' W 079°56'0 0.2
2018-Feb-05 16:30N 09°26' W 079°56'2 5.0
2018-Feb-05 16:00N 09°26' W 079°59'3 5.8
2018-Feb-05 15:30N 09°28' W 079°57'2 3.8
2018-Feb-05 14:58N 09°30' W 079°56'0 0.0
2018-Feb-05 08:55N 09°29' W 079°56'0 0.0
2018-Feb-05 04:31N 09°29' W 079°56'0 0.1
2018-Feb-05 04:22N 09°29' W 079°56'0 0.0
2018-Feb-05 03:55N 09°29' W 079°56'0 0.0
2018-Feb-05 03:16N 09°29' W 079°56'0 0.0
2018-Feb-04 11:19N 09°29' W 079°56'0 0.0
2018-Feb-04 09:46N 09°29' W 079°56'0 0.0
2018-Feb-04 08:52N 09°29' W 079°56'0 0.0
2018-Feb-04 08:28N 09°29' W 079°56'0 0.0
2018-Feb-04 07:58N 09°29' W 079°56'0 0.0
2018-Feb-04 06:40N 09°29' W 079°56'0 0.1
2018-Feb-04 06:22N 09°29' W 079°56'1 1.7
2018-Feb-04 06:01N 09°30' W 079°55'3 6.6
2018-Feb-04 05:30N 09°32' W 079°53'4 8.5
2018-Feb-04 05:00N 09°37' W 079°53'  
2018-Jan-28 22:32N 36°51' W 075°50'1 9.9
2018-Jan-28 22:26N 36°51' W 075°51'4 9.6
2018-Jan-28 22:01N 36°54' W 075°55'5 9.5
2018-Jan-28 21:30N 36°57' W 076°00'  
Track history (hours):
 
Tides and Currents Weather Stations Pressure Air Temp Water Temp Dewpoint Dewpoint Depression Visibility Wind Speed Wind Dir Waves Ship Positions

Bahama Spirit

Last reported at 2018-Feb-07 21:01 UTC. Time now 2018-Feb-19 12:17 UTC.
Position N 09°11' W 079°52'.
Warning: this ship's position is 11 days out of date.

Length 187 m; draft 10 m.

Type: Cargo ship. MMSI: 576532000.

Date/timePositionNaut miles runAvg speedWind from/ knotsBaromVisibWave heightAir tempDewpointWater temp
2018-Feb-07 21:01N 09°11' W 079°52'5 0.4
2018-Feb-07 09:29N 09°14' W 079°56'0 0.1
2018-Feb-07 09:00N 09°14' W 079°56'0 0.0
2018-Feb-07 08:29N 09°14' W 079°56'0 0.0
2018-Feb-07 08:00N 09°14' W 079°56'0 0.0
2018-Feb-07 07:30N 09°14' W 079°56'0 0.1
2018-Feb-07 06:59N 09°14' W 079°56'2 3.2
2018-Feb-07 06:30N 09°15' W 079°55'1 2.2
2018-Feb-07 06:00N 09°16' W 079°55'0 0.5
2018-Feb-07 05:30N 09°17' W 079°55'0 0.6
2018-Feb-07 05:00N 09°17' W 079°55'1 1.5
2018-Feb-07 04:30N 09°18' W 079°55'5 3.1
2018-Feb-07 03:01N 09°22' W 079°56'0 0.0
2018-Feb-07 02:58N 09°22' W 079°56'0 0.0
2018-Feb-07 02:28N 09°22' W 079°56'0 0.0
2018-Feb-07 01:58N 09°22' W 079°56'0 0.0
2018-Feb-07 01:28N 09°22' W 079°56'0 0.1
2018-Feb-07 00:58N 09°22' W 079°56'0 0.0
2018-Feb-07 00:28N 09°22' W 079°56'0 0.0
2018-Feb-06 23:58N 09°22' W 079°56'0 0.0
2018-Feb-06 23:28N 09°22' W 079°56'0 0.0
2018-Feb-06 22:58N 09°22' W 079°56'0 0.0
2018-Feb-06 22:25N 09°22' W 079°56'0 0.0
2018-Feb-06 21:58N 09°22' W 079°56'0 0.0
2018-Feb-06 21:28N 09°22' W 079°56'0 0.0
2018-Feb-06 20:58N 09°22' W 079°56'0 0.0
2018-Feb-06 20:28N 09°22' W 079°56'0 0.0
2018-Feb-06 19:58N 09°22' W 079°56'0 0.0
2018-Feb-06 19:28N 09°22' W 079°56'0 0.0
2018-Feb-06 18:58N 09°22' W 079°56'0 0.0
2018-Feb-06 18:28N 09°22' W 079°56'0 0.0
2018-Feb-06 17:58N 09°22' W 079°56'0 0.0
2018-Feb-06 17:28N 09°22' W 079°56'0 0.0
2018-Feb-06 16:58N 09°22' W 079°56'0 0.0
2018-Feb-06 16:28N 09°22' W 079°56'0 0.1
2018-Feb-06 15:58N 09°22' W 079°56'0 0.8
2018-Feb-06 15:30N 09°22' W 079°56'2 4.3
2018-Feb-06 15:00N 09°24' W 079°55'1 1.7
2018-Feb-06 14:30N 09°25' W 079°55'1 1.3
2018-Feb-06 13:29N 09°26' W 079°56'0 0.6
2018-Feb-06 12:53N 09°26' W 079°56'0 0.0
2018-Feb-06 12:29N 09°26' W 079°56'0 0.0
2018-Feb-06 11:59N 09°26' W 079°56'0 0.0
2018-Feb-06 11:23N 09°26' W 079°56'0 0.0
2018-Feb-06 10:59N 09°26' W 079°56'0 0.0
2018-Feb-06 10:29N 09°26' W 079°56'0 0.1
2018-Feb-06 09:59N 09°26' W 079°56'0 0.0
2018-Feb-06 09:23N 09°26' W 079°56'0 0.0
2018-Feb-06 08:59N 09°26' W 079°56'0 0.0
2018-Feb-06 08:20N 09°26' W 079°56'0 0.0
2018-Feb-06 07:59N 09°26' W 079°56'0 0.0
2018-Feb-06 07:17N 09°26' W 079°56'0 0.0
2018-Feb-06 06:59N 09°26' W 079°56'0 0.0
2018-Feb-06 06:29N 09°26' W 079°56'0 0.0
2018-Feb-06 05:59N 09°26' W 079°56'0 0.0
2018-Feb-06 05:29N 09°26' W 079°56'0 0.0
2018-Feb-06 04:59N 09°26' W 079°56'0 0.0
2018-Feb-06 04:29N 09°26' W 079°56'0 0.0
2018-Feb-06 03:59N 09°26' W 079°56'0 0.0
2018-Feb-06 03:29N 09°26' W 079°56'0 0.0
2018-Feb-06 02:59N 09°26' W 079°56'0 0.0
2018-Feb-06 02:29N 09°26' W 079°56'0 0.0
2018-Feb-06 01:59N 09°26' W 079°56'0 0.0
2018-Feb-06 01:29N 09°26' W 079°56'0 0.0
2018-Feb-06 00:59N 09°26' W 079°56'0 0.0
2018-Feb-06 00:29N 09°26' W 079°56'0 0.0
2018-Feb-05 23:59N 09°26' W 079°56'0 0.0
2018-Feb-05 23:29N 09°26' W 079°56'0 0.0
2018-Feb-05 22:59N 09°26' W 079°56'0 0.0
2018-Feb-05 22:29N 09°26' W 079°56'0 0.0
2018-Feb-05 21:59N 09°26' W 079°56'0 0.0
2018-Feb-05 21:29N 09°26' W 079°56'0 0.0
2018-Feb-05 20:59N 09°26' W 079°56'0 0.0
2018-Feb-05 20:29N 09°26' W 079°56'0 0.0
2018-Feb-05 19:59N 09°26' W 079°56'0 0.0
2018-Feb-05 19:26N 09°26' W 079°56'0 0.0
2018-Feb-05 18:53N 09°26' W 079°56'0 0.0
2018-Feb-05 18:26N 09°26' W 079°56'0 0.0
2018-Feb-05 17:59N 09°26' W 079°56'0 0.0
2018-Feb-05 17:29N 09°26' W 079°56'0 0.1
2018-Feb-05 16:59N 09°26' W 079°56'0 0.2
2018-Feb-05 16:30N 09°26' W 079°56'2 5.0
2018-Feb-05 16:00N 09°26' W 079°59'3 5.8
2018-Feb-05 15:30N 09°28' W 079°57'2 3.8
2018-Feb-05 14:58N 09°30' W 079°56'0 0.0
2018-Feb-05 08:55N 09°29' W 079°56'0 0.0
2018-Feb-05 04:31N 09°29' W 079°56'0 0.1
2018-Feb-05 04:22N 09°29' W 079°56'0 0.0
2018-Feb-05 03:55N 09°29' W 079°56'0 0.0
2018-Feb-05 03:16N 09°29' W 079°56'0 0.0
2018-Feb-04 11:19N 09°29' W 079°56'0 0.0
2018-Feb-04 09:46N 09°29' W 079°56'0 0.0
2018-Feb-04 08:52N 09°29' W 079°56'0 0.0
2018-Feb-04 08:28N 09°29' W 079°56'0 0.0
2018-Feb-04 07:58N 09°29' W 079°56'0 0.0
2018-Feb-04 06:40N 09°29' W 079°56'0 0.1
2018-Feb-04 06:22N 09°29' W 079°56'1 1.7
2018-Feb-04 06:01N 09°30' W 079°55'3 6.6
2018-Feb-04 05:30N 09°32' W 079°53'4 8.5
2018-Feb-04 05:00N 09°37' W 079°53'  
2018-Jan-28 22:32N 36°51' W 075°50'1 9.9
2018-Jan-28 22:26N 36°51' W 075°51'4 9.6
2018-Jan-28 22:01N 36°54' W 075°55'5 9.5
2018-Jan-28 21:30N 36°57' W 076°00'  

Dump ship's entire track history